createdAt,value
2019-01-28T00:04:02.413Z,65.18
2019-01-28T00:09:09.623Z,64.26
2019-01-28T00:14:15.621Z,64.75
2019-01-28T00:19:20.336Z,64.61
2019-01-28T00:24:24.912Z,64.61
2019-01-28T00:29:29.497Z,65.05
2019-01-28T00:34:34.003Z,65.29
2019-01-28T00:39:38.689Z,65.14
2019-01-28T00:44:43.231Z,65.54
2019-01-28T00:49:47.815Z,65.37
2019-01-28T01:00:51.936Z,64.12
2019-01-28T01:05:56.859Z,64.12
2019-01-28T01:11:01.977Z,63.79
2019-01-28T01:16:07.085Z,63.80
2019-01-28T01:21:23.577Z,63.67
2019-01-28T01:26:28.133Z,63.89
2019-01-28T01:31:32.774Z,64.64
2019-01-28T01:36:37.718Z,65.28
2019-01-28T01:41:43.125Z,64.85
2019-01-28T01:46:48.406Z,64.85
2019-01-28T01:51:56.362Z,64.72
2019-01-28T01:57:01.202Z,65.47
2019-01-28T02:07:55.614Z,65.35
2019-01-28T02:13:04.561Z,65.80
2019-01-28T02:18:12.528Z,66.12
2019-01-28T02:23:17.251Z,66.54
2019-01-28T02:28:21.827Z,66.15
2019-01-28T02:33:27.347Z,66.35
2019-01-28T02:38:32.213Z,66.55
2019-01-28T02:43:41.295Z,66.54
2019-01-28T02:48:47.516Z,66.97
2019-01-28T02:53:52.264Z,66.71
2019-01-28T02:58:57.775Z,66.72
2019-01-28T03:10:29.384Z,67.07
2019-01-28T03:21:11.934Z,67.03
2019-01-28T03:26:17.010Z,67.03
2019-01-28T03:31:22.417Z,66.76
2019-01-28T03:36:27.443Z,67.38
2019-01-28T03:41:32.787Z,67.21
2019-01-28T03:46:39.266Z,67.62
2019-01-28T03:51:47.580Z,67.62
2019-01-28T03:56:52.979Z,68.13
2019-01-28T04:01:57.675Z,68.25
2019-01-28T04:07:08.028Z,68.23
2019-01-28T04:12:13.100Z,68.11
2019-01-28T04:17:17.660Z,68.38
2019-01-28T04:22:22.248Z,68.30
2019-01-28T04:27:26.758Z,68.38
2019-01-28T04:32:31.315Z,68.37
2019-01-28T04:37:35.850Z,68.04
2019-01-28T04:42:40.434Z,68.08
2019-01-28T04:47:45.796Z,67.30
2019-01-28T04:52:50.950Z,67.30
2019-01-28T04:57:55.541Z,66.98
2019-01-28T05:02:59.967Z,67.47
2019-01-28T05:08:04.116Z,67.10
2019-01-28T05:13:08.404Z,67.08
2019-01-28T05:18:12.652Z,67.38
2019-01-28T05:23:16.808Z,67.11
2019-01-28T05:28:20.882Z,67.11
2019-01-28T05:33:25.055Z,67.15
2019-01-28T05:38:29.420Z,67.16
2019-01-28T05:43:33.496Z,67.13
2019-01-28T05:48:37.733Z,67.13
2019-01-28T05:53:41.825Z,67.29
2019-01-28T05:58:45.903Z,67.25
2019-01-28T06:03:50.162Z,67.45
2019-01-28T06:08:54.449Z,67.26
2019-01-28T06:13:58.536Z,67.26
2019-01-28T06:19:02.664Z,67.27
2019-01-28T06:24:06.951Z,67.50
2019-01-28T06:29:11.160Z,67.31
2019-01-28T06:34:15.350Z,67.22
2019-01-28T06:39:19.594Z,67.49
2019-01-28T06:44:23.895Z,67.47
2019-01-28T06:49:27.968Z,67.72
2019-01-28T06:54:32.051Z,67.40
2019-01-28T06:59:36.093Z,67.61
2019-01-28T07:04:40.146Z,67.73
2019-01-28T07:09:44.269Z,67.54
2019-01-28T07:14:48.381Z,67.38
2019-01-28T07:19:52.524Z,67.59
2019-01-28T07:24:56.583Z,67.42
2019-01-28T07:30:00.636Z,67.24
2019-01-28T07:35:05.522Z,67.52
2019-01-28T07:40:10.354Z,67.48
2019-01-28T07:45:17.734Z,47.54
2019-01-28T07:50:22.164Z,49.26
2019-01-28T07:55:26.321Z,50.16
2019-01-28T08:00:30.813Z,50.23
2019-01-28T08:05:34.992Z,51.88
2019-01-28T08:10:39.093Z,46.76
2019-01-28T08:15:43.105Z,46.75
2019-01-28T08:20:47.185Z,46.75
2019-01-28T08:25:51.202Z,47.49
2019-01-28T08:30:55.361Z,48.61
2019-01-28T08:35:59.392Z,49.60
2019-01-28T08:41:03.513Z,50.00
2019-01-28T08:46:07.629Z,50.86
2019-01-28T08:51:11.628Z,51.23
2019-01-28T08:56:16.931Z,52.80
2019-01-28T09:01:21.173Z,52.80
2019-01-28T09:06:25.213Z,53.77
2019-01-28T09:11:29.392Z,54.09
2019-01-28T09:16:33.578Z,54.09
2019-01-28T09:21:37.747Z,54.63
2019-01-28T09:26:41.929Z,54.87
2019-01-28T09:31:46.038Z,55.13
2019-01-28T09:36:50.153Z,55.13
2019-01-28T09:41:54.258Z,56.41
2019-01-28T09:46:58.439Z,56.59
2019-01-28T09:52:02.594Z,56.59
2019-01-28T09:57:06.697Z,57.18
2019-01-28T10:02:10.826Z,57.51
2019-01-28T10:07:14.851Z,57.85
2019-01-28T10:12:19.012Z,57.85
2019-01-28T10:17:23.192Z,57.27
2019-01-28T10:22:27.234Z,57.27
2019-01-28T10:27:31.341Z,57.63
2019-01-28T10:32:36.263Z,57.63
2019-01-28T10:37:40.686Z,58.31
2019-01-28T10:42:44.955Z,58.82
2019-01-28T10:47:48.970Z,59.06
2019-01-28T10:52:53.181Z,59.06
2019-01-28T10:57:57.444Z,60.73
2019-01-28T11:03:01.750Z,60.73
2019-01-28T11:08:06.951Z,62.49
2019-01-28T11:13:11.213Z,62.49
2019-01-28T11:18:27.168Z,63.33
2019-01-28T11:23:32.292Z,63.33
2019-01-28T11:28:36.726Z,62.47
2019-01-28T11:33:40.884Z,62.45
2019-01-28T11:38:45.215Z,62.56
2019-01-28T11:43:49.350Z,62.56
2019-01-28T11:48:53.684Z,61.84
2019-01-28T11:53:57.732Z,63.38
2019-01-28T11:59:01.813Z,63.38
2019-01-28T12:04:06.030Z,62.84
2019-01-28T12:09:10.995Z,62.83
2019-01-28T12:14:15.105Z,62.99
2019-01-28T12:19:19.247Z,62.56
2019-01-28T12:24:23.349Z,63.55
2019-01-28T12:29:27.442Z,63.55
2019-01-28T12:39:52.699Z,63.07
2019-01-28T12:44:57.048Z,63.34
2019-01-28T12:50:01.180Z,63.33
2019-01-28T12:55:07.178Z,63.33
2019-01-28T13:00:14.718Z,63.16
2019-01-28T13:05:20.175Z,63.46
2019-01-28T13:10:24.704Z,44.18
2019-01-28T13:15:29.153Z,46.21
2019-01-28T13:20:33.327Z,46.00
2019-01-28T13:25:37.619Z,45.87
2019-01-28T13:30:41.706Z,45.87
2019-01-28T13:35:45.874Z,47.97
2019-01-28T13:40:49.973Z,49.98
2019-01-28T13:45:54.110Z,49.98
2019-01-28T13:50:58.182Z,51.85
2019-01-28T13:56:02.285Z,52.74
2019-01-28T14:01:06.542Z,52.74
2019-01-28T14:06:10.618Z,54.40
2019-01-28T14:11:14.677Z,54.40
2019-01-28T14:16:18.677Z,54.63
2019-01-28T14:21:22.761Z,54.99
2019-01-28T14:26:26.844Z,55.93
2019-01-28T14:31:30.844Z,56.16
2019-01-28T14:36:34.949Z,56.87
2019-01-28T14:41:39.040Z,56.68
2019-01-28T14:46:43.054Z,57.20
2019-01-28T14:51:47.168Z,57.58
2019-01-28T14:56:52.160Z,57.46
2019-01-28T15:01:56.488Z,57.85
2019-01-28T15:07:00.497Z,58.10
2019-01-28T15:12:04.839Z,58.10
2019-01-28T15:17:08.863Z,58.34
2019-01-28T15:22:13.901Z,58.34
2019-01-28T15:27:17.948Z,58.45
2019-01-28T15:32:21.968Z,58.43
2019-01-28T15:37:26.163Z,56.57
2019-01-28T15:42:31.039Z,56.63
2019-01-28T15:47:35.134Z,56.63
2019-01-28T15:52:39.303Z,57.23
2019-01-28T15:57:43.963Z,57.23
2019-01-28T16:02:48.412Z,57.48
2019-01-28T16:07:52.599Z,58.32
2019-01-28T16:12:56.877Z,59.72
2019-01-28T16:18:00.974Z,59.90
2019-01-28T16:23:05.878Z,59.90
2019-01-28T16:28:10.139Z,59.51
2019-01-28T16:33:14.306Z,59.58
2019-01-28T16:38:18.334Z,60.39
2019-01-28T16:43:22.546Z,61.49
2019-01-28T16:48:26.790Z,61.49
2019-01-28T16:53:30.963Z,61.13
2019-01-28T16:58:36.229Z,60.74
2019-01-28T17:03:40.451Z,60.98
2019-01-28T17:08:45.003Z,59.87
2019-01-28T17:13:49.119Z,59.74
2019-01-28T17:18:53.823Z,59.99
2019-01-28T17:23:58.023Z,60.68
2019-01-28T17:29:02.100Z,60.07
2019-01-28T17:34:06.256Z,60.43
2019-01-28T17:39:10.428Z,60.24
2019-01-28T17:44:14.467Z,60.24
2019-01-28T17:49:18.560Z,60.49
2019-01-28T17:54:22.585Z,60.20
2019-01-28T17:59:26.669Z,60.36
2019-01-28T18:04:30.697Z,60.21
2019-01-28T18:09:34.731Z,60.14
2019-01-28T18:14:38.849Z,59.78
2019-01-28T18:19:42.992Z,60.05
2019-01-28T18:24:47.279Z,60.04
2019-01-28T18:29:51.297Z,60.04
2019-01-28T18:34:55.441Z,59.85
2019-01-28T18:39:59.504Z,59.88
2019-01-28T18:45:04.164Z,59.29
2019-01-28T18:50:11.129Z,59.67
2019-01-28T18:55:16.706Z,59.67
2019-01-28T19:00:23.302Z,59.61
2019-01-28T19:05:38.237Z,59.37
2019-01-28T19:10:54.143Z,59.60
2019-01-28T19:16:16.201Z,59.60
2019-01-28T19:21:40.759Z,60.37
2019-01-28T19:26:45.184Z,60.25
2019-01-28T19:31:49.218Z,59.31
2019-01-28T19:36:53.324Z,59.31
2019-01-28T19:41:57.347Z,59.15
2019-01-28T19:47:01.458Z,59.43
2019-01-28T19:52:05.707Z,59.54
2019-01-28T19:57:09.754Z,59.72
2019-01-28T20:02:13.795Z,59.90
2019-01-28T20:07:17.798Z,59.98
2019-01-28T20:12:21.844Z,59.98
2019-01-28T20:17:25.922Z,60.26
2019-01-28T20:22:29.949Z,60.90
2019-01-28T20:27:33.971Z,61.32
2019-01-28T20:32:38.028Z,60.70
2019-01-28T20:37:42.173Z,61.01
2019-01-28T20:42:46.268Z,60.31
2019-01-28T20:47:50.388Z,61.83
2019-01-28T20:52:54.644Z,61.42
2019-01-28T20:57:58.836Z,61.87
2019-01-28T21:03:02.947Z,61.87
2019-01-28T21:08:07.136Z,60.53
2019-01-28T21:13:11.390Z,61.75
2019-01-28T21:18:15.886Z,61.26
2019-01-28T21:23:20.036Z,60.22
2019-01-28T21:28:24.359Z,60.68
2019-01-28T21:33:28.705Z,60.68
2019-01-28T21:38:37.778Z,61.12
2019-01-28T21:43:41.854Z,61.56
2019-01-28T21:48:46.087Z,59.94
2019-01-28T21:53:50.447Z,59.94
2019-01-28T21:58:54.724Z,59.58
2019-01-28T22:03:58.894Z,60.10
2019-01-28T22:09:03.498Z,60.43
2019-01-28T22:14:07.890Z,60.43
2019-01-28T22:19:12.167Z,60.49
2019-01-28T22:24:16.343Z,61.45
2019-01-28T22:29:20.424Z,61.76
2019-01-28T22:34:24.767Z,61.59
2019-01-28T22:39:29.090Z,60.96
2019-01-28T22:44:33.467Z,60.96
2019-01-28T22:49:37.752Z,61.32
2019-01-28T22:54:41.858Z,61.21
2019-01-28T22:59:46.058Z,60.76
2019-01-28T23:04:50.199Z,60.15
2019-01-28T23:09:54.350Z,60.90
2019-01-28T23:14:58.408Z,61.05
2019-01-28T23:20:02.701Z,61.05
2019-01-28T23:25:07.137Z,59.57
2019-01-28T23:30:13.007Z,60.74
2019-01-28T23:35:17.117Z,60.52
2019-01-28T23:40:21.253Z,61.05
2019-01-28T23:45:25.538Z,59.97
2019-01-28T23:50:29.635Z,60.58
2019-01-28T23:55:33.814Z,60.14
